LEVT Airport Information

Runway Information
Runway 04 Length 11483 ft width 148 ft
Elevation 1651 ft Threshold 0 ft Heading 36
Runway 22 Length 11483 ft Width 148 ft
Elevation 1682 ft Threshold 0 ft Heading 216
Airport Frequencies
Type GND Name GND Frequency 121.8 MHZ
Type TWR Name TWR Frequency 118.45 MHZ
Airport Navaids
Type VOR-DME Name Vitoria Frequency 112900 KHZ
Type VOR-DME Name Vitoria Frequency 116600 KHZ
Airport Weather Information & NOTAM
ADDS - METARS form results

(1244 UTC 23 February 2019)
Data provider http://aviationweather.gov/metar/data/
 
METAR text: LEVT 231230Z 10001KT CAVOK 18/00 Q1030
Conditions at: LEVT (VITORIA , ES) observed 1230 UTC 23 February 2019
Temperature: 18.0°C (64°F)
Dewpoint: 0.0°C (32°F) [RH = 30%]
Pressure (altimeter): 30.41 inches Hg (1030.0 mb)
Winds: from the E (100 degrees) at 1 MPH (1 knots; 0.5 m/s)
Visibility: 6 or more miles (10+ km)
Ceiling: ceiling and visibility are OK
Clouds: unknown
Weather: no significant weather observed at this time

METAR text: LEVT 231200Z 00000KT CAVOK 17/02 Q1031
Conditions at: LEVT (VITORIA , ES) observed 1200 UTC 23 February 2019
Temperature: 17.0°C (63°F)
Dewpoint: 2.0°C (36°F) [RH = 36%]
Pressure (altimeter): 30.44 inches Hg (1031.0 mb)
Winds: calm
Visibility: 6 or more miles (10+ km)
Ceiling: ceiling and visibility are OK
Clouds: unknown
Weather: no significant weather observed at this time

Forecast for: LEVT (VITORIA , ES)
Text: TAF LEVT 231100Z 2312/2412 VRB04KT CAVOK TX17/2314Z TNM02/2407Z
Forecast period: 1200 UTC 23 February 2019 to 1200 UTC 24 February 2019
Forecast type: FROM: standard forecast or significant change
Winds: variable direction winds at 5 MPH (4 knots; 2.1 m/s)
Visibility: 6 or more miles 10+ km)
Ceiling: unknown
Clouds: missing
Weather: no significant weather forecast for this period
Text: PROB30
Forecast period: 0200 to 0600 UTC 24 February 2019
Forecast type: TEMPORARY: The following changes expected for less than half the time period
Visibility: 1.86 miles (2.99 km)
Ceiling: unknown
Clouds: missing
Weather: BR  (mist)